Country
Station

 

Weather  for  Millinocket, Millinocket Municipal Airport  -  United States    United States

  
-2 °C (28 °F)
    
 
 

Current METAR for Millinocket, Millinocket Municipal Airport is :

KMLT 192253Z AUTO 29005KT 10SM CLR M02/M18 A3029 RMK AO2 SLP272 T10221183

 

This is a report for Millinocket, Millinocket Municipal Airport - United States.
 
The report was made one hour and 3 minutes ago, at 22:53 UTC .
The wind was blowing at a speed of 2.6 meters per second (5.8 miles per hour) from west/northwest (290°).
 
The temperature was -2 °C (28 °F), with a dew-point at -18 °C (-0 °F).
The temperature felt like -6 °C (22 °F).
 
The atmospheric pressure was 1026 hPa (30.29 inHg).
The relative humidity was 28.1%.
 
The sky was clear.
 
The overall visibility was 16.1 kilometers (10.0 miles).
 

 
 
 
 

Country :   A   B   C   D   E   F   G   H   I   J   K   L   M   N   O   P   Q   R   S   T   U   V   W   Y   Z

 

Site Info  |  Disclaimer  |  Credits  |  Privacy
Contact us  |  Add to favorites
© 2013-2019 METARs - All rights reserved